createdAt,value
2023-01-28T00:01:10.191Z,100240.17
2023-01-28T00:03:39.744Z,100236.47
2023-01-28T00:06:08.950Z,100235.25
2023-01-28T00:08:36.817Z,100230.70
2023-01-28T00:11:06.576Z,100231.40
2023-01-28T00:13:35.765Z,100231.58
2023-01-28T00:16:04.790Z,100232.44
2023-01-28T00:18:34.360Z,100230.98
2023-01-28T00:21:06.480Z,100234.83
2023-01-28T00:23:36.083Z,100233.17
2023-01-28T00:26:04.832Z,100237.90
2023-01-28T00:28:35.190Z,100234.91
2023-01-28T00:31:24.969Z,100231.31
2023-01-28T00:33:55.629Z,100230.50
2023-01-28T00:36:27.053Z,100226.48
2023-01-28T00:38:58.363Z,100225.88
2023-01-28T00:41:28.071Z,100224.59
2023-01-28T00:43:55.160Z,100223.13
2023-01-28T00:46:22.907Z,100221.54
2023-01-28T00:48:51.308Z,100226.05
2023-01-28T00:51:21.848Z,100224.64
2023-01-28T00:53:53.790Z,100225.00
2023-01-28T00:56:22.397Z,100225.67
2023-01-28T00:58:49.682Z,100227.55
2023-01-28T01:01:23.588Z,100230.20
2023-01-28T01:03:57.147Z,100232.14
2023-01-28T01:06:27.251Z,100232.31
2023-01-28T01:08:55.124Z,100230.33
2023-01-28T01:11:23.113Z,100228.05
2023-01-28T01:13:59.709Z,100226.86
2023-01-28T01:16:28.804Z,100221.45
2023-01-28T01:18:59.130Z,100218.31
2023-01-28T01:21:32.171Z,100214.13
2023-01-28T01:24:01.408Z,100210.98
2023-01-28T01:26:32.239Z,100210.48
2023-01-28T01:29:02.404Z,100208.17
2023-01-28T01:31:31.282Z,100211.00
2023-01-28T01:34:02.416Z,100216.46
2023-01-28T01:36:32.561Z,100218.36
2023-01-28T01:39:00.861Z,100219.91
2023-01-28T01:41:31.179Z,100218.10
2023-01-28T01:44:03.073Z,100216.31
2023-01-28T01:46:39.836Z,100217.34
2023-01-28T01:49:25.861Z,100212.39
2023-01-28T01:52:03.413Z,100207.45
2023-01-28T01:54:30.705Z,100209.80
2023-01-28T01:56:57.955Z,100203.83
2023-01-28T01:59:27.830Z,100201.48
2023-01-28T02:01:57.629Z,100196.99
2023-01-28T02:04:27.453Z,100193.34
2023-01-28T02:06:55.844Z,100196.95
2023-01-28T02:09:35.808Z,100196.92
2023-01-28T02:12:24.796Z,100195.70
2023-01-28T05:57:01.614Z,100237.48
2023-01-28T05:59:33.222Z,100234.19
2023-01-28T06:02:04.880Z,100236.11
2023-01-28T06:04:36.330Z,100233.31
2023-01-28T06:07:07.205Z,100236.88
2023-01-28T06:09:41.203Z,100233.05
2023-01-28T06:12:10.738Z,100236.80
2023-01-28T06:14:55.393Z,100236.36
2023-01-28T06:17:45.368Z,100236.86
2023-01-28T06:20:27.828Z,100233.66
2023-01-28T06:23:04.022Z,100234.28
2023-01-28T06:25:36.522Z,100233.30
2023-01-28T06:28:12.767Z,100234.59
2023-01-28T06:30:42.692Z,100239.86
2023-01-28T06:33:11.213Z,100238.38
2023-01-28T06:35:39.713Z,100237.38
2023-01-28T06:38:09.012Z,100234.61
2023-01-28T06:40:40.059Z,100241.15
2023-01-28T06:43:08.418Z,100246.48
2023-01-28T06:45:39.164Z,100252.46
2023-01-28T06:48:12.459Z,100251.65
2023-01-28T06:50:42.468Z,100254.50
2023-01-28T06:53:11.205Z,100252.75
2023-01-28T06:55:39.671Z,100249.44
2023-01-28T06:58:08.122Z,100241.98
2023-01-28T07:00:39.128Z,100243.75
2023-01-28T07:03:07.714Z,100244.38
2023-01-28T07:05:41.201Z,100245.73
2023-01-28T07:08:10.612Z,100244.09
2023-01-28T07:10:39.445Z,100244.56
2023-01-28T07:13:11.228Z,100251.61
2023-01-28T07:15:39.967Z,100260.26
2023-01-28T07:18:11.070Z,100254.95
2023-01-28T07:20:43.240Z,100251.38
2023-01-28T07:23:18.699Z,100252.92
2023-01-28T07:25:48.673Z,100254.23
2023-01-28T07:28:24.227Z,100252.09
2023-01-28T07:30:54.213Z,100245.23
2023-01-28T07:33:26.608Z,100244.39
2023-01-28T07:35:58.538Z,100235.45
2023-01-28T07:41:10.127Z,100234.38
2023-01-28T07:43:39.634Z,100230.33
2023-01-28T07:46:10.457Z,100231.02
2023-01-28T07:48:39.030Z,100232.03
2023-01-28T07:51:09.136Z,100233.89
2023-01-28T07:53:37.864Z,100238.44
2023-01-28T07:56:07.806Z,100244.06
2023-01-28T07:58:36.847Z,100251.41
2023-01-28T08:01:06.124Z,100251.07
2023-01-28T08:03:34.865Z,100253.98
2023-01-28T08:06:03.279Z,100266.73
2023-01-28T08:08:32.513Z,100261.15
2023-01-28T08:11:12.131Z,100261.70
2023-01-28T08:13:41.945Z,100259.22
2023-01-28T08:16:10.679Z,100261.39
2023-01-28T08:18:41.820Z,100257.38
2023-01-28T08:21:10.376Z,100256.69
2023-01-28T08:23:40.145Z,100260.98
2023-01-28T08:26:10.858Z,100260.73
2023-01-28T08:28:41.096Z,100258.73
2023-01-28T08:31:10.301Z,100257.00
2023-01-28T08:33:38.874Z,100254.72
2023-01-28T08:36:08.772Z,100255.50
2023-01-28T08:38:40.405Z,100254.36
2023-01-28T08:41:12.888Z,100250.64
2023-01-28T08:43:44.964Z,100250.41
2023-01-28T08:46:14.207Z,100248.89
2023-01-28T08:48:47.147Z,100241.52
2023-01-28T08:51:15.498Z,100237.26
2023-01-28T08:53:47.457Z,100237.92
2023-01-28T08:56:22.978Z,100230.20
2023-01-28T08:58:54.936Z,100229.39
2023-01-28T09:01:35.267Z,100222.97
2023-01-28T09:04:04.499Z,100213.50
2023-01-28T09:06:37.758Z,100208.85
2023-01-28T09:09:09.610Z,100203.73
2023-01-28T09:13:42.583Z,100204.49
2023-01-28T09:16:15.460Z,100201.08
2023-01-28T09:18:54.917Z,100196.73
2023-01-28T09:21:37.582Z,100196.33
2023-01-28T09:24:06.705Z,100194.04
2023-01-28T09:26:36.034Z,100192.14
2023-01-28T09:29:05.023Z,100186.49
2023-01-28T09:32:02.032Z,100178.78
2023-01-28T09:34:35.177Z,100182.17
2023-01-28T09:37:29.201Z,100179.56
2023-01-28T09:40:12.908Z,100181.29
2023-01-28T09:42:48.775Z,100177.86
2023-01-28T09:45:49.933Z,100176.02
2023-01-28T09:48:37.110Z,100176.13
2023-01-28T09:51:12.646Z,100170.63
2023-01-28T14:01:22.661Z,100016.09
2023-01-28T14:04:30.830Z,100021.41
2023-01-28T14:07:25.429Z,100024.16
2023-01-28T14:10:33.407Z,100024.80
2023-01-28T14:13:57.515Z,100024.09
2023-01-28T14:16:43.710Z,100021.70
2023-01-28T14:19:13.786Z,100019.21
2023-01-28T14:21:43.624Z,100019.52
2023-01-28T14:24:16.449Z,100021.17
2023-01-28T14:26:47.057Z,100023.67
2023-01-28T14:29:56.225Z,100020.06
2023-01-28T14:32:30.228Z,100015.52
2023-01-28T14:35:02.858Z,100018.63
2023-01-28T14:37:33.899Z,100021.23
2023-01-28T14:40:17.737Z,100022.70
2023-01-28T14:42:46.900Z,100024.18
2023-01-28T14:45:36.697Z,100025.20
2023-01-28T14:48:28.647Z,100022.42
2023-01-28T14:51:04.567Z,100026.77
2023-01-28T14:54:21.345Z,100030.19
2023-01-28T14:57:22.622Z,100031.52
2023-01-28T15:00:01.236Z,100034.33
2023-01-28T15:02:29.342Z,100036.80
2023-01-28T15:05:10.796Z,100041.06
2023-01-28T15:07:38.076Z,100044.25
2023-01-28T15:10:14.103Z,100043.57
2023-01-28T15:12:48.024Z,100044.52
2023-01-28T15:15:19.584Z,100049.54
2023-01-28T15:17:47.017Z,100046.26
2023-01-28T15:20:20.745Z,100051.09
2023-01-28T15:22:52.590Z,100046.62
2023-01-28T15:25:23.013Z,100047.25
2023-01-28T15:27:51.782Z,100046.43
2023-01-28T15:30:27.937Z,100045.61
2023-01-28T15:33:02.574Z,100044.66
2023-01-28T15:35:32.621Z,100041.95
2023-01-28T15:38:02.444Z,100044.71
2023-01-28T15:40:43.428Z,100044.61
2023-01-28T15:43:22.005Z,100048.52
2023-01-28T15:52:14.483Z,100054.23
2023-01-28T15:54:46.184Z,100055.60
2023-01-28T15:57:27.675Z,100054.94
2023-01-28T16:00:13.565Z,100054.48
2023-01-28T16:03:08.910Z,100058.39
2023-01-28T16:05:43.598Z,100062.14
2023-01-28T16:08:25.245Z,100062.20
2023-01-28T16:10:59.809Z,100063.90
2023-01-28T16:13:36.276Z,100065.74
2023-01-28T16:16:05.508Z,100068.34
2023-01-28T16:18:42.449Z,100067.60
2023-01-28T16:21:13.064Z,100062.95
2023-01-28T16:24:14.844Z,100060.02
2023-01-28T16:26:43.627Z,100057.96
2023-01-28T16:29:16.178Z,100059.25
2023-01-28T16:31:49.902Z,100063.23
2023-01-28T16:34:21.550Z,100062.67
2023-01-28T16:37:00.061Z,100062.25
2023-01-28T16:39:31.312Z,100065.42
2023-01-28T16:42:01.417Z,100069.08
2023-01-28T16:44:33.785Z,100066.94
2023-01-28T16:47:04.869Z,100065.67
2023-01-28T16:49:37.589Z,100064.02
2023-01-28T16:52:11.562Z,100067.09
2023-01-28T16:54:46.480Z,100063.56
2023-01-28T16:57:20.289Z,100063.15
2023-01-28T16:59:50.019Z,100063.45
2023-01-28T17:02:20.848Z,100067.81
2023-01-28T17:05:06.291Z,100071.09
2023-01-28T17:07:38.951Z,100075.94
2023-01-28T17:10:13.270Z,100072.83
2023-01-28T17:12:45.115Z,100069.65
2023-01-28T17:15:18.921Z,100069.86
2023-01-28T17:17:59.966Z,100076.24
2023-01-28T17:20:37.584Z,100077.23
2023-01-28T17:23:09.958Z,100074.95
2023-01-28T17:25:43.673Z,100073.44
2023-01-28T17:28:13.198Z,100069.98
2023-01-28T17:30:50.695Z,100068.81
2023-01-28T17:33:23.203Z,100068.37
2023-01-28T17:35:59.728Z,100065.63
2023-01-28T17:38:33.650Z,100063.46
2023-01-28T17:41:08.793Z,100063.04
2023-01-28T17:43:43.359Z,100067.64
2023-01-28T17:46:15.187Z,100068.21
2023-01-28T17:48:46.209Z,100068.09
2023-01-28T17:51:14.700Z,100072.38
2023-01-28T17:53:50.757Z,100075.39
2023-01-28T22:03:40.032Z,100108.80
2023-01-28T22:06:09.703Z,100109.11
2023-01-28T22:08:41.763Z,100112.79
2023-01-28T22:11:11.950Z,100110.16
2023-01-28T22:13:45.470Z,100107.25
2023-01-28T22:16:18.450Z,100106.27
2023-01-28T22:18:50.440Z,100111.95
2023-01-28T22:21:33.638Z,100110.48
2023-01-28T22:24:03.979Z,100105.95
2023-01-28T22:26:35.797Z,100102.70
2023-01-28T22:29:10.586Z,100099.58
2023-01-28T22:31:41.923Z,100096.66
2023-01-28T22:34:11.895Z,100097.49
2023-01-28T22:36:44.163Z,100095.45
2023-01-28T22:39:15.224Z,100092.90
2023-01-28T22:41:44.557Z,100089.98
2023-01-28T22:44:13.203Z,100086.36
2023-01-28T22:46:41.761Z,100089.24
2023-01-28T22:49:12.642Z,100086.14
2023-01-28T22:51:41.909Z,100087.58
2023-01-28T22:54:16.223Z,100086.91
2023-01-28T22:56:50.149Z,100088.37
2023-01-28T22:59:21.991Z,100086.11
2023-01-28T23:01:50.645Z,100085.09
2023-01-28T23:04:21.875Z,100085.13
2023-01-28T23:06:50.630Z,100087.42
2023-01-28T23:09:19.526Z,100082.17
2023-01-28T23:11:48.540Z,100080.44
2023-01-28T23:14:37.315Z,100084.50
2023-01-28T23:17:30.004Z,100082.05
2023-01-28T23:20:17.379Z,100073.80
2023-01-28T23:23:07.227Z,100069.62
2023-01-28T23:25:38.087Z,100066.62
2023-01-28T23:28:07.018Z,100068.21
2023-01-28T23:30:44.909Z,100072.45
2023-01-28T23:33:15.819Z,100071.73
2023-01-28T23:41:43.375Z,100062.95
2023-01-28T23:44:18.776Z,100061.17
2023-01-28T23:46:47.105Z,100057.37
2023-01-28T23:49:15.464Z,100063.57
2023-01-28T23:51:45.728Z,100060.45
2023-01-28T23:54:16.854Z,100062.02
2023-01-28T23:56:45.984Z,100059.03
2023-01-28T23:59:17.929Z,100058.16
